Time;durP1;ratioP1;P1;durP2;ratioP2;P2;SDS_P1;SDS_P2;PMS_P1;PMS_P2;Temp;Humidity;BMP_temperature;BMP_pressure;BME280_temperature;BME280_humidity;BME280_pressure;Samples;Min_cycle;Max_cycle;Signal;HPM_P1;HPM_P2
2023/05/01 00:04:53;;;;;;;10.85;7.25;;;;;;;-146.18;100.00;67994.34;10104660;28;20066;-64
2023/05/01 00:09:51;;;;;;;9.13;6.90;;;;;;;-146.18;100.00;67994.34;10102614;28;20054;-64
2023/05/01 00:14:47;;;;;;;12.75;7.13;;;;;;;-146.18;100.00;67994.34;10099146;28;20494;-67
2023/05/01 00:19:44;;;;;;;9.90;6.70;;;;;;;-146.18;100.00;67994.34;10105873;28;20581;-67
2023/05/01 00:24:40;;;;;;;10.95;7.60;;;;;;;-146.18;100.00;67994.34;10102230;28;20074;-67
2023/05/01 00:29:37;;;;;;;12.20;7.13;;;;;;;-146.18;100.00;67994.34;10098079;28;20043;-65
2023/05/01 00:34:33;;;;;;;13.68;7.32;;;;;;;-146.18;100.00;67994.34;10105050;28;20039;-65
2023/05/01 00:39:33;;;;;;;10.60;6.85;;;;;;;-146.18;100.00;67994.34;10100155;28;20129;-64
2023/05/01 00:44:29;;;;;;;13.07;7.43;;;;;;;-146.18;100.00;67994.34;10094582;28;20560;-67
2023/05/01 00:49:26;;;;;;;15.70;7.55;;;;;;;-146.18;100.00;67994.34;10106769;28;20390;-67
2023/05/01 00:54:24;;;;;;;9.38;7.05;;;;;;;-146.18;100.00;67994.34;10099181;28;20058;-67
2023/05/01 00:59:20;;;;;;;11.30;7.60;;;;;;;-146.18;100.00;67994.34;10083376;28;20122;-67
2023/05/01 01:10:04;;;;;;;15.02;6.57;;;;;;;-146.18;100.00;67994.34;10515438;23;20178;-66
2023/05/01 01:15:34;;;;;;;16.08;6.82;;;;;;;-146.18;100.00;67994.34;10086749;28;20432;-67
2023/05/01 01:20:54;;;;;;;9.75;6.43;;;;;;;-146.18;100.00;67994.34;10049740;28;20581;-67
2023/05/01 01:26:24;;;;;;;9.23;6.05;;;;;;;-146.18;100.00;67994.34;10060083;28;20050;-67
2023/05/01 01:31:29;;;;;;;10.25;6.70;;;;;;;-146.18;100.00;67994.34;10051926;28;20079;-67
2023/05/01 01:36:38;;;;;;;10.50;6.43;;;;;;;-146.18;100.00;67994.34;10063429;28;20047;-68
2023/05/01 01:41:37;;;;;;;9.13;6.10;;;;;;;-146.18;100.00;67994.34;10062651;28;20035;-66
2023/05/01 01:46:39;;;;;;;7.88;6.18;;;;;;;-146.18;100.00;67994.34;10054200;28;20582;-68
2023/05/01 01:51:40;;;;;;;11.15;6.50;;;;;;;-146.18;100.00;67994.34;10055936;28;20051;-67
2023/05/01 01:56:38;;;;;;;8.68;5.68;;;;;;;-146.18;100.00;67994.34;10058072;28;20055;-68
2023/05/01 02:01:38;;;;;;;10.70;6.20;;;;;;;-146.18;100.00;67994.34;10063333;28;20052;-68
2023/05/01 02:06:36;;;;;;;10.73;6.68;;;;;;;-146.18;100.00;67994.34;10063226;28;20322;-68
2023/05/01 02:11:48;;;;;;;12.57;6.30;;;;;;;-146.18;100.00;67994.34;10059027;28;20050;-68
2023/05/01 02:16:46;;;;;;;12.15;6.97;;;;;;;-146.18;100.00;67994.34;10062998;28;20106;-67
2023/05/01 02:21:44;;;;;;;10.55;7.07;;;;;;;-146.18;100.00;67994.34;10044420;28;20074;-68
2023/05/01 02:26:42;;;;;;;12.13;8.25;;;;;;;-146.18;100.00;67994.34;10018968;28;20103;-67
2023/05/01 02:31:39;;;;;;;15.00;9.25;;;;;;;-146.18;100.00;67994.34;10021416;28;20054;-66
2023/05/01 02:36:36;;;;;;;11.05;8.02;;;;;;;-146.18;100.00;67994.34;10022108;28;20078;-68
2023/05/01 02:41:34;;;;;;;10.93;7.30;;;;;;;-146.18;100.00;67994.34;10040194;28;20692;-68
2023/05/01 02:46:36;;;;;;;13.15;8.20;;;;;;;-146.18;100.00;67994.34;10055767;28;20066;-68
2023/05/01 02:51:34;;;;;;;14.27;8.27;;;;;;;-146.18;100.00;67994.34;10050871;28;20054;-68
2023/05/01 02:56:30;;;;;;;15.07;9.00;;;;;;;-146.18;100.00;67994.34;10058621;28;20043;-68
2023/05/01 03:01:27;;;;;;;13.68;8.15;;;;;;;-146.18;100.00;67994.34;10059558;28;20040;-65
2023/05/01 03:06:24;;;;;;;11.85;7.70;;;;;;;-146.18;100.00;67994.34;10043230;28;20052;-65
2023/05/01 03:11:20;;;;;;;10.13;7.55;;;;;;;-146.18;100.00;67994.34;10024240;28;20048;-67
2023/05/01 03:16:17;;;;;;;9.95;7.00;;;;;;;-146.18;100.00;67994.34;10023564;28;20126;-67
2023/05/01 03:21:13;;;;;;;10.70;6.68;;;;;;;-146.18;100.00;67994.34;10034753;28;20644;-68
2023/05/01 03:26:10;;;;;;;10.50;7.47;;;;;;;-146.18;100.00;67994.34;10060179;28;20047;-68
2023/05/01 03:31:07;;;;;;;11.77;6.85;;;;;;;-146.18;100.00;67994.34;10058635;28;20546;-68
2023/05/01 03:36:07;;;;;;;9.18;7.25;;;;;;;-146.18;100.00;67994.34;10061299;28;20063;-65
2023/05/01 03:41:04;;;;;;;10.95;6.95;;;;;;;-146.18;100.00;67994.34;10061465;28;20051;-65
2023/05/01 03:46:01;;;;;;;13.23;7.07;;;;;;;-146.18;100.00;67994.34;10061261;28;20074;-66
2023/05/01 03:50:57;;;;;;;12.25;6.28;;;;;;;-146.18;100.00;67994.34;10048527;28;20053;-66
2023/05/01 03:55:54;;;;;;;9.60;6.90;;;;;;;-146.18;100.00;67994.34;10053824;28;20517;-67
2023/05/01 04:00:50;;;;;;;8.35;6.70;;;;;;;-146.18;100.00;67994.34;10058327;28;20047;-67
2023/05/01 04:05:47;;;;;;;10.38;7.55;;;;;;;-146.18;100.00;67994.34;10055601;28;20541;-66
2023/05/01 04:10:43;;;;;;;9.68;6.70;;;;;;;-146.18;100.00;67994.34;10052502;28;20054;-67
2023/05/01 04:15:45;;;;;;;12.93;7.03;;;;;;;-146.18;100.00;67994.34;10043869;28;20502;-67
2023/05/01 04:20:41;;;;;;;12.20;7.63;;;;;;;-146.18;100.00;67994.34;10023792;28;20059;-67
2023/05/01 04:25:38;;;;;;;9.27;6.53;;;;;;;-146.18;100.00;67994.34;10024325;28;20048;-67
2023/05/01 04:30:35;;;;;;;10.90;7.20;;;;;;;-146.18;100.00;67994.34;10020726;28;20763;-68
2023/05/01 04:35:34;;;;;;;8.75;6.47;;;;;;;-146.18;100.00;67994.34;10053801;28;20043;-67
2023/05/01 04:40:31;;;;;;;9.70;6.22;;;;;;;-146.18;100.00;67994.34;10060099;28;20044;-68
2023/05/01 04:45:27;;;;;;;8.73;6.70;;;;;;;-146.18;100.00;67994.34;10060002;28;20043;-68
2023/05/01 04:50:24;;;;;;;9.82;7.00;;;;;;;-146.18;100.00;67994.34;10052586;28;20043;-68
2023/05/01 04:55:20;;;;;;;11.95;7.20;;;;;;;-146.18;100.00;67994.34;10058554;28;20052;-68
2023/05/01 05:00:18;;;;;;;10.18;6.80;;;;;;;-146.18;100.00;67994.34;10021328;28;20425;-68
2023/05/01 05:05:14;;;;;;;8.20;6.45;;;;;;;-146.18;100.00;67994.34;10036178;28;20134;-68
2023/05/01 05:10:11;;;;;;;10.07;7.15;;;;;;;-146.18;100.00;67994.34;10065506;28;20146;-68
2023/05/01 05:15:10;;;;;;;10.55;7.55;;;;;;;-146.18;100.00;67994.34;10065300;28;20127;-68
2023/05/01 05:20:07;;;;;;;11.40;7.55;;;;;;;-146.18;100.00;67994.34;10059130;28;20512;-68
2023/05/01 05:25:05;;;;;;;9.70;7.40;;;;;;;-146.18;100.00;67994.34;10063010;28;20055;-68
2023/05/01 05:30:05;;;;;;;10.25;7.47;;;;;;;-146.18;100.00;67994.34;10022033;28;20159;-67
2023/05/01 05:35:02;;;;;;;11.43;7.25;;;;;;;-146.18;100.00;67994.34;10025253;28;20060;-68
2023/05/01 05:39:58;;;;;;;9.02;6.53;;;;;;;-146.18;100.00;67994.34;10021820;29;20051;-66
2023/05/01 05:44:55;;;;;;;13.50;7.07;;;;;;;-146.18;100.00;67994.34;10068244;28;20047;-66
2023/05/01 05:49:52;;;;;;;12.30;7.22;;;;;;;-146.18;100.00;67994.34;10061344;28;20137;-66
2023/05/01 05:54:48;;;;;;;11.75;6.63;;;;;;;-146.18;100.00;67994.34;10067839;28;20142;-66
2023/05/01 05:59:44;;;;;;;14.38;7.45;;;;;;;-146.18;100.00;67994.34;10065505;28;20067;-68
2023/05/01 06:04:41;;;;;;;7.85;6.32;;;;;;;-146.18;100.00;67994.34;10056841;28;20051;-68
2023/05/01 06:09:40;;;;;;;11.50;7.18;;;;;;;-146.18;100.00;67994.34;10061367;28;20147;-67
2023/05/01 06:14:36;;;;;;;10.82;7.25;;;;;;;-146.18;100.00;67994.34;10056556;28;20039;-67
2023/05/01 06:19:34;;;;;;;9.40;6.60;;;;;;;-146.18;100.00;67994.34;10058012;28;20082;-67
2023/05/01 06:24:30;;;;;;;7.78;6.80;;;;;;;-146.18;100.00;67994.34;10054345;28;20075;-67
2023/05/01 06:29:27;;;;;;;10.15;7.00;;;;;;;-146.18;100.00;67994.34;10046080;28;20509;-67
2023/05/01 06:34:23;;;;;;;7.65;6.32;;;;;;;-146.18;100.00;67994.34;10016725;28;20139;-65
2023/05/01 06:39:19;;;;;;;11.38;6.88;;;;;;;-146.18;100.00;67994.34;10026465;28;20058;-66
2023/05/01 06:44:19;;;;;;;11.05;7.00;;;;;;;-146.18;100.00;67994.34;10024776;28;20501;-65
2023/05/01 06:49:15;;;;;;;12.52;6.68;;;;;;;-146.18;100.00;67994.34;10054217;28;20054;-66
2023/05/01 06:54:12;;;;;;;9.07;6.50;;;;;;;-146.18;100.00;67994.34;10047878;28;20417;-66
2023/05/01 06:59:08;;;;;;;8.68;6.38;;;;;;;-146.18;100.00;67994.34;10058232;28;20700;-66
2023/05/01 07:04:06;;;;;;;9.75;6.78;;;;;;;-146.18;100.00;67994.34;10061524;28;20145;-66
2023/05/01 07:09:05;;;;;;;12.60;7.18;;;;;;;-146.18;100.00;67994.34;10044931;28;20051;-65
2023/05/01 07:14:02;;;;;;;9.52;6.68;;;;;;;-146.18;100.00;67994.34;10050590;28;20055;-65
2023/05/01 07:18:59;;;;;;;9.02;6.75;;;;;;;-146.18;100.00;67994.34;10046685;28;20413;-65
2023/05/01 07:23:55;;;;;;;8.18;7.03;;;;;;;-146.18;100.00;67994.34;10028597;28;20054;-65
2023/05/01 07:28:52;;;;;;;7.20;6.55;;;;;;;-146.18;100.00;67994.34;10021933;28;20124;-65
2023/05/01 07:33:48;;;;;;;6.97;6.28;;;;;;;-146.18;100.00;67994.34;10018270;28;20071;-65
2023/05/01 07:38:47;;;;;;;8.85;6.18;;;;;;;-146.18;100.00;67994.34;10047722;28;20047;-65
2023/05/01 07:43:43;;;;;;;7.10;5.85;;;;;;;-146.18;100.00;67994.34;10059115;28;20122;-66
2023/05/01 07:48:40;;;;;;;7.30;6.20;;;;;;;-146.18;100.00;67994.34;10042774;28;20406;-66
2023/05/01 07:53:39;;;;;;;9.32;6.00;;;;;;;-146.18;100.00;67994.34;10056418;28;20044;-66
2023/05/01 07:58:36;;;;;;;7.15;6.45;;;;;;;-146.18;100.00;67994.34;10046505;28;20051;-66
2023/05/01 08:03:33;;;;;;;10.35;5.55;;;;;;;-146.18;100.00;67994.34;10029586;28;20042;-66
2023/05/01 08:08:30;;;;;;;8.27;6.25;;;;;;;-146.18;100.00;67994.34;10018162;28;20051;-65
2023/05/01 08:13:26;;;;;;;9.85;5.63;;;;;;;-146.18;100.00;67994.34;10023060;28;20067;-65
2023/05/01 08:18:23;;;;;;;7.75;5.88;;;;;;;-146.18;100.00;67994.34;10024597;28;20047;-65
2023/05/01 08:23:19;;;;;;;7.68;6.38;;;;;;;-146.18;100.00;67994.34;10017114;28;20041;-65
2023/05/01 08:28:16;;;;;;;7.97;6.82;;;;;;;-146.18;100.00;67994.34;10028049;28;20072;-65
2023/05/01 08:33:13;;;;;;;10.32;6.40;;;;;;;-146.18;100.00;67994.34;10022706;28;20051;-65
2023/05/01 08:38:10;;;;;;;7.88;6.15;;;;;;;-146.18;100.00;67994.34;10024693;28;20794;-66
2023/05/01 08:43:07;;;;;;;10.05;6.45;;;;;;;-146.18;100.00;67994.34;10031165;28;20044;-66
2023/05/01 08:48:08;;;;;;;8.80;6.32;;;;;;;-146.18;100.00;67994.34;10051178;28;20051;-66
2023/05/01 08:53:11;;;;;;;9.45;7.65;;;;;;;-146.18;100.00;67994.34;10064483;28;20138;-66
2023/05/01 08:58:08;;;;;;;10.13;6.57;;;;;;;-146.18;100.00;67994.34;10044009;28;20090;-66
2023/05/01 09:03:07;;;;;;;10.45;6.13;;;;;;;-146.18;100.00;67994.34;10023896;28;20048;-66
2023/05/01 09:08:03;;;;;;;7.95;6.60;;;;;;;-146.18;100.00;67994.34;10020971;28;20108;-66
2023/05/01 09:13:02;;;;;;;7.95;6.07;;;;;;;-146.18;100.00;67994.34;10026939;28;20075;-65
2023/05/01 09:18:00;;;;;;;11.50;6.78;;;;;;;-146.18;100.00;67994.34;10033002;28;20048;-65
2023/05/01 09:22:59;;;;;;;9.27;6.03;;;;;;;-146.18;100.00;67994.34;10069649;28;20082;-65
2023/05/01 09:27:56;;;;;;;6.47;5.70;;;;;;;-146.18;100.00;67994.34;10062707;28;20051;-64
2023/05/01 09:33:15;;;;;;;9.60;5.57;;;;;;;-146.18;100.00;67994.34;10065574;28;20059;-64
2023/05/01 09:38:17;;;;;;;7.70;5.45;;;;;;;-146.18;100.00;67994.34;10058487;28;20062;-65
2023/05/01 09:43:23;;;;;;;8.37;6.70;;;;;;;-146.18;100.00;67994.34;10036344;28;20050;-64
2023/05/01 09:48:20;;;;;;;6.80;5.88;;;;;;;-146.18;100.00;67994.34;10026914;28;20075;-66
2023/05/01 09:53:16;;;;;;;7.53;6.18;;;;;;;-146.18;100.00;67994.34;10028427;28;20134;-65
2023/05/01 09:58:26;;;;;;;7.82;6.25;;;;;;;-146.18;100.00;67994.34;10025008;28;20044;-65
2023/05/01 10:03:22;;;;;;;8.60;6.10;;;;;;;-146.18;100.00;67994.34;10047110;28;20842;-64
2023/05/01 10:08:19;;;;;;;10.23;6.32;;;;;;;-146.18;100.00;67994.34;10048899;28;20138;-65
2023/05/01 10:13:16;;;;;;;9.90;5.80;;;;;;;-146.18;100.00;67994.34;10046279;28;20081;-66
2023/05/01 10:18:13;;;;;;;10.18;5.95;;;;;;;-146.18;100.00;67994.34;10048577;28;20051;-66
2023/05/01 10:23:10;;;;;;;8.07;6.13;;;;;;;-146.18;100.00;67994.34;10058223;28;20641;-65
2023/05/01 10:28:08;;;;;;;8.70;5.95;;;;;;;-146.18;100.00;67994.34;10061214;28;20051;-66
2023/05/01 10:33:05;;;;;;;6.35;5.72;;;;;;;-146.18;100.00;67994.34;10051554;28;20048;-65
2023/05/01 10:38:06;;;;;;;8.25;6.35;;;;;;;-146.18;100.00;67994.34;10061650;28;20103;-66
2023/05/01 10:43:26;;;;;;;9.25;5.93;;;;;;;-146.18;100.00;67994.34;10054849;28;20051;-65
2023/05/01 10:48:38;;;;;;;6.43;5.70;;;;;;;-146.18;100.00;67994.34;10057806;28;20130;-66
2023/05/01 10:53:35;;;;;;;8.63;6.23;;;;;;;-146.18;100.00;67994.34;10063728;28;20039;-66
2023/05/01 10:58:37;;;;;;;8.95;5.82;;;;;;;-146.18;100.00;67994.34;10063914;28;20047;-66
2023/05/01 11:03:34;;;;;;;7.70;6.20;;;;;;;-146.18;100.00;67994.34;10049463;28;20043;-65
2023/05/01 11:08:36;;;;;;;11.30;6.00;;;;;;;-146.18;100.00;67994.34;10045019;28;20118;-65
2023/05/01 11:13:58;;;;;;;8.60;5.97;;;;;;;-146.18;100.00;67994.34;10060928;28;20098;-65
2023/05/01 11:18:54;;;;;;;6.20;5.55;;;;;;;-146.18;100.00;67994.34;10023470;29;20056;-65
2023/05/01 11:23:52;;;;;;;6.80;6.10;;;;;;;-146.18;100.00;67994.34;10022808;28;20074;-66
2023/05/01 11:28:53;;;;;;;6.70;5.88;;;;;;;-146.18;100.00;67994.34;10018925;28;20052;-65
2023/05/01 11:33:50;;;;;;;9.05;5.63;;;;;;;-146.18;100.00;67994.34;10017093;28;20646;-65
2023/05/01 11:38:50;;;;;;;9.35;5.95;;;;;;;-146.18;100.00;67994.34;10051983;28;20053;-65
2023/05/01 11:43:52;;;;;;;8.57;5.85;;;;;;;-146.18;100.00;67994.34;10070129;28;20070;-65
2023/05/01 11:48:49;;;;;;;9.50;5.43;;;;;;;-146.18;100.00;67994.34;10068911;28;20047;-65
2023/05/01 11:54:06;;;;;;;7.50;5.93;;;;;;;-146.18;100.00;67994.34;10063062;28;20046;-66
2023/05/01 11:59:16;;;;;;;8.10;5.45;;;;;;;-146.18;100.00;67994.34;10064603;28;20772;-66
2023/05/01 12:04:23;;;;;;;9.57;6.13;;;;;;;-146.18;100.00;67994.34;10048060;28;20066;-66
2023/05/01 12:09:21;;;;;;;7.70;5.95;;;;;;;-146.18;100.00;67994.34;10017293;28;20047;-65
2023/05/01 12:14:23;;;;;;;6.38;5.78;;;;;;;-146.18;100.00;67994.34;10017228;28;20079;-65
2023/05/01 12:19:21;;;;;;;10.00;5.43;;;;;;;-146.18;100.00;67994.34;10021920;28;20047;-65
2023/05/01 12:24:19;;;;;;;7.80;5.55;;;;;;;-146.18;100.00;67994.34;10023592;28;20052;-66
2023/05/01 12:29:15;;;;;;;7.07;6.00;;;;;;;-146.18;100.00;67994.34;10018330;28;20700;-66
2023/05/01 12:34:12;;;;;;;6.45;5.38;;;;;;;-146.18;100.00;67994.34;10015316;28;20035;-66
2023/05/01 12:39:11;;;;;;;6.47;5.35;;;;;;;-146.18;100.00;67994.34;10014605;28;20048;-65
2023/05/01 12:44:16;;;;;;;9.70;5.32;;;;;;;-146.18;100.00;67994.34;10015916;28;20059;-66
2023/05/01 12:49:17;;;;;;;8.00;5.50;;;;;;;-146.18;100.00;67994.34;10011585;29;20067;-66
2023/05/01 12:54:22;;;;;;;6.90;4.97;;;;;;;-146.18;100.00;67994.34;10043721;29;20414;-65
2023/05/01 12:59:24;;;;;;;6.35;5.30;;;;;;;-146.18;100.00;67994.34;10024956;28;20052;-66
2023/05/01 13:04:21;;;;;;;5.77;5.20;;;;;;;-146.18;100.00;67994.34;10022577;28;20043;-66
2023/05/01 13:09:18;;;;;;;8.15;5.38;;;;;;;-146.18;100.00;67994.34;10021850;29;20051;-66
2023/05/01 13:14:15;;;;;;;6.22;5.03;;;;;;;-146.18;100.00;67994.34;10027351;29;20058;-66
2023/05/01 13:19:12;;;;;;;5.25;4.75;;;;;;;-146.18;100.00;67994.34;10050908;28;20134;-66
2023/05/01 13:24:09;;;;;;;7.50;5.38;;;;;;;-146.18;100.00;67994.34;10077374;28;20049;-66
2023/05/01 13:29:06;;;;;;;6.40;5.30;;;;;;;-146.18;100.00;67994.34;10063573;28;20085;-66
2023/05/01 13:34:02;;;;;;;8.07;5.35;;;;;;;-146.18;100.00;67994.34;10065014;28;20110;-65
2023/05/01 13:38:59;;;;;;;7.68;5.68;;;;;;;-146.18;100.00;67994.34;10065234;28;20052;-65
2023/05/01 13:43:56;;;;;;;5.75;5.15;;;;;;;-146.18;100.00;67994.34;10067801;28;20055;-65
2023/05/01 13:48:53;;;;;;;6.10;5.60;;;;;;;-146.18;100.00;67994.34;10067371;28;20080;-65
2023/05/01 13:53:51;;;;;;;6.50;5.38;;;;;;;-146.18;100.00;67994.34;10029114;28;20052;-66
2023/05/01 13:58:49;;;;;;;5.90;5.20;;;;;;;-146.18;100.00;67994.34;10022269;28;20418;-65
2023/05/01 14:03:46;;;;;;;6.43;4.70;;;;;;;-146.18;100.00;67994.34;10024818;28;20058;-65
2023/05/01 14:08:45;;;;;;;6.70;5.00;;;;;;;-146.18;100.00;67994.34;10023832;28;20063;-65
2023/05/01 14:13:44;;;;;;;5.53;4.78;;;;;;;-146.18;100.00;67994.34;10027698;28;20079;-66
2023/05/01 14:18:45;;;;;;;5.13;4.63;;;;;;;-146.18;100.00;67994.34;10049473;28;20130;-64
2023/05/01 14:23:41;;;;;;;7.80;5.68;;;;;;;-146.18;100.00;67994.34;10066464;28;20054;-65
2023/05/01 14:28:42;;;;;;;4.75;4.30;;;;;;;-146.18;100.00;67994.34;10060423;28;20059;-65
2023/05/01 14:33:46;;;;;;;5.28;4.78;;;;;;;-146.18;100.00;67994.34;10068076;28;20062;-65
2023/05/01 14:38:45;;;;;;;5.20;4.65;;;;;;;-146.18;100.00;67994.34;10066944;28;20051;-65
2023/05/01 14:43:43;;;;;;;6.38;4.38;;;;;;;-146.18;100.00;67994.34;10066729;28;20047;-64
2023/05/01 14:48:40;;;;;;;6.25;4.72;;;;;;;-146.18;100.00;67994.34;10056154;28;20107;-64
2023/05/01 14:53:43;;;;;;;7.50;4.80;;;;;;;-146.18;100.00;67994.34;10034335;28;20059;-65
2023/05/01 14:58:40;;;;;;;;;;;;;;;-146.18;100.00;67994.34;10020501;28;20082;-65
2023/05/01 15:03:39;;;;;;;4.82;4.32;;;;;;;-146.18;100.00;67994.34;10026360;28;19965;-66
2023/05/01 15:08:37;;;;;;;6.03;4.30;;;;;;;-146.18;100.00;67994.34;10051871;28;20421;-70
2023/05/01 15:13:33;;;;;;;6.70;4.75;;;;;;;-146.18;100.00;67994.34;10067692;28;20527;-65
2023/05/01 15:18:30;;;;;;;5.55;4.78;;;;;;;-146.18;100.00;67994.34;10058710;28;20047;-65
2023/05/01 15:23:26;;;;;;;6.65;4.40;;;;;;;-146.18;100.00;67994.34;10061020;28;20051;-65
2023/05/01 15:28:23;;;;;;;5.88;5.32;;;;;;;-146.18;100.00;67994.34;10056748;28;20713;-65
2023/05/01 15:33:21;;;;;;;7.57;5.35;;;;;;;-146.18;100.00;67994.34;10060357;28;20502;-65
2023/05/01 15:38:19;;;;;;;5.65;5.15;;;;;;;-146.18;100.00;67994.34;10038107;28;20056;-65
2023/05/01 15:43:15;;;;;;;6.05;5.18;;;;;;;-146.18;100.00;67994.34;10050342;28;20062;-65
2023/05/01 15:48:12;;;;;;;7.68;5.70;;;;;;;-146.18;100.00;67994.34;10066130;28;20094;-65
2023/05/01 15:53:08;;;;;;;6.38;4.90;;;;;;;-146.18;100.00;67994.34;10062515;28;20043;-65
2023/05/01 15:58:05;;;;;;;5.35;4.85;;;;;;;-146.18;100.00;67994.34;10065431;28;20114;-65
2023/05/01 16:03:03;;;;;;;10.77;6.20;;;;;;;-146.18;100.00;67994.34;10062791;28;20051;-65
2023/05/01 16:08:00;;;;;;;7.75;6.03;;;;;;;-146.18;100.00;67994.34;10056729;28;20504;-64
2023/05/01 16:12:56;;;;;;;9.32;5.80;;;;;;;-146.18;100.00;67994.34;10036188;28;20055;-65
2023/05/01 16:17:53;;;;;;;8.32;5.78;;;;;;;-146.18;100.00;67994.34;10022606;28;20063;-66
2023/05/01 16:22:50;;;;;;;8.50;6.15;;;;;;;-146.18;100.00;67994.34;10025630;28;20058;-66
2023/05/01 16:27:47;;;;;;;10.48;7.70;;;;;;;-146.18;100.00;67994.34;10021442;28;20058;-66
2023/05/01 16:32:44;;;;;;;11.05;7.60;;;;;;;-146.18;100.00;67994.34;10052239;28;20058;-65
2023/05/01 16:37:41;;;;;;;10.85;6.50;;;;;;;-146.18;100.00;67994.34;10072077;28;20040;-65
2023/05/01 16:42:37;;;;;;;11.52;7.35;;;;;;;-146.18;100.00;67994.34;10055763;28;20051;-65
2023/05/01 16:47:34;;;;;;;9.32;5.75;;;;;;;-146.18;100.00;67994.34;10055886;28;20135;-65
2023/05/01 16:52:31;;;;;;;7.80;5.72;;;;;;;-146.18;100.00;67994.34;10059328;28;20074;-65
2023/05/01 16:57:27;;;;;;;8.18;5.50;;;;;;;-146.18;100.00;67994.34;10064019;28;20102;-65
2023/05/01 17:02:24;;;;;;;11.00;6.95;;;;;;;-146.18;100.00;67994.34;10067079;28;20130;-65
2023/05/01 17:07:22;;;;;;;11.60;6.85;;;;;;;-146.18;100.00;67994.34;10062187;28;20059;-65
2023/05/01 17:12:19;;;;;;;8.48;6.18;;;;;;;-146.18;100.00;67994.34;10060274;28;20094;-65
2023/05/01 17:17:16;;;;;;;10.10;5.93;;;;;;;-146.18;100.00;67994.34;10059756;28;20051;-65
2023/05/01 17:22:13;;;;;;;9.00;6.47;;;;;;;-146.18;100.00;67994.34;10053073;28;20750;-65
2023/05/01 17:27:11;;;;;;;6.70;5.72;;;;;;;-146.18;100.00;67994.34;10064501;28;20512;-66
2023/05/01 17:32:07;;;;;;;10.07;7.22;;;;;;;-146.18;100.00;67994.34;10058749;28;20094;-64
2023/05/01 17:37:04;;;;;;;13.48;7.93;;;;;;;-146.18;100.00;67994.34;10052161;28;20059;-64
2023/05/01 17:42:03;;;;;;;8.35;6.28;;;;;;;-146.18;100.00;67994.34;10045312;28;20427;-64
2023/05/01 17:46:59;;;;;;;8.10;6.32;;;;;;;-146.18;100.00;67994.34;10026359;28;20763;-64
2023/05/01 17:51:56;;;;;;;8.20;6.05;;;;;;;-146.18;100.00;67994.34;10024400;28;20054;-64
2023/05/01 17:56:52;;;;;;;9.68;6.47;;;;;;;-146.18;100.00;67994.34;10039466;28;20051;-64
2023/05/01 18:01:49;;;;;;;8.68;6.35;;;;;;;-146.18;100.00;67994.34;10071062;28;20483;-65
2023/05/01 18:06:45;;;;;;;9.18;6.22;;;;;;;-146.18;100.00;67994.34;10037748;28;20486;-64
2023/05/01 18:11:42;;;;;;;8.25;6.20;;;;;;;-146.18;100.00;67994.34;10025974;28;20086;-65
2023/05/01 18:16:38;;;;;;;8.85;6.03;;;;;;;-146.18;100.00;67994.34;10040095;28;20055;-64
2023/05/01 18:21:35;;;;;;;9.32;5.50;;;;;;;-146.18;100.00;67994.34;10068525;28;20521;-65
2023/05/01 18:26:32;;;;;;;7.82;5.25;;;;;;;-146.18;100.00;67994.34;10053882;28;20152;-64
2023/05/01 18:31:28;;;;;;;8.75;6.22;;;;;;;-146.18;100.00;67994.34;10058650;28;20044;-64
2023/05/01 18:36:25;;;;;;;8.88;6.25;;;;;;;-146.18;100.00;67994.34;10053735;28;20055;-64
2023/05/01 18:41:24;;;;;;;7.95;5.80;;;;;;;-146.18;100.00;67994.34;10051677;28;20377;-64
2023/05/01 18:46:21;;;;;;;8.10;4.47;;;;;;;-146.18;100.00;67994.34;10052268;28;20576;-65
2023/05/01 18:51:17;;;;;;;7.70;5.28;;;;;;;-146.18;100.00;67994.34;10059804;28;20146;-65
2023/05/01 18:56:14;;;;;;;7.35;5.88;;;;;;;-146.18;100.00;67994.34;10046561;28;20484;-65
2023/05/01 19:01:10;;;;;;;6.68;5.25;;;;;;;-146.18;100.00;67994.34;10026912;28;20143;-64
2023/05/01 19:06:09;;;;;;;6.75;5.43;;;;;;;-146.18;100.00;67994.34;10021255;28;20044;-65
2023/05/01 19:11:05;;;;;;;5.28;4.78;;;;;;;-146.18;100.00;67994.34;10027369;28;20138;-64
2023/05/01 19:16:02;;;;;;;6.43;5.07;;;;;;;-146.18;100.00;67994.34;10029805;28;20618;-64
2023/05/01 19:21:01;;;;;;;7.22;5.10;;;;;;;-146.18;100.00;67994.34;10030710;28;20131;-64
2023/05/01 19:25:57;;;;;;;8.40;5.15;;;;;;;-146.18;100.00;67994.34;10019896;28;20455;-64
2023/05/01 19:30:54;;;;;;;7.85;5.50;;;;;;;-146.18;100.00;67994.34;10011963;28;20059;-64
2023/05/01 19:35:50;;;;;;;10.70;6.93;;;;;;;-146.18;100.00;67994.34;10015416;28;20054;-64
2023/05/01 19:40:47;;;;;;;7.97;5.60;;;;;;;-146.18;100.00;67994.34;10023002;28;20051;-64
2023/05/01 19:45:43;;;;;;;7.25;6.03;;;;;;;-146.18;100.00;67994.34;10055939;28;20576;-65
2023/05/01 19:50:41;;;;;;;9.43;5.47;;;;;;;-146.18;100.00;67994.34;10024241;28;20715;-65
2023/05/01 19:55:38;;;;;;;9.18;6.28;;;;;;;-146.18;100.00;67994.34;10012144;28;20043;-68
2023/05/01 20:00:35;;;;;;;6.72;5.07;;;;;;;-146.18;100.00;67994.34;10052467;28;20054;-67
2023/05/01 20:05:31;;;;;;;10.98;5.68;;;;;;;-146.18;100.00;67994.34;10066025;28;20054;-66
2023/05/01 20:10:28;;;;;;;7.55;5.25;;;;;;;-146.18;100.00;67994.34;10056505;28;20047;-66
2023/05/01 20:15:25;;;;;;;7.57;5.20;;;;;;;-146.18;100.00;67994.34;10046587;28;20075;-67
2023/05/01 20:20:24;;;;;;;8.88;6.03;;;;;;;-146.18;100.00;67994.34;10012629;29;20262;-68
2023/05/01 20:25:20;;;;;;;6.60;5.55;;;;;;;-146.18;100.00;67994.34;10003321;28;20048;-68
2023/05/01 20:30:17;;;;;;;7.85;5.70;;;;;;;-146.18;100.00;67994.34;10018294;28;20521;-70
2023/05/01 20:35:14;;;;;;;11.13;5.63;;;;;;;-146.18;100.00;67994.34;10029044;28;20500;-69
2023/05/01 20:40:11;;;;;;;10.07;5.63;;;;;;;-146.18;100.00;67994.34;10024201;28;20062;-69
2023/05/01 20:45:08;;;;;;;10.75;5.40;;;;;;;-146.18;100.00;67994.34;10016751;28;20504;-69
2023/05/01 20:50:06;;;;;;;11.63;5.07;;;;;;;-146.18;100.00;67994.34;10017522;28;20110;-68
2023/05/01 20:55:03;;;;;;;12.88;5.60;;;;;;;-146.18;100.00;67994.34;10025602;28;20498;-68
2023/05/01 21:00:00;;;;;;;8.77;5.25;;;;;;;-146.18;100.00;67994.34;10021898;29;20686;-66
2023/05/01 21:04:57;;;;;;;5.80;4.75;;;;;;;-146.18;100.00;67994.34;10020273;29;20482;-68
2023/05/01 21:09:53;;;;;;;8.23;5.47;;;;;;;-146.18;100.00;67994.34;10025994;28;20052;-68
2023/05/01 21:14:50;;;;;;;12.60;5.68;;;;;;;-146.18;100.00;67994.34;10025478;29;20047;-66
2023/05/01 21:19:47;;;;;;;10.65;5.40;;;;;;;-146.18;100.00;67994.34;10022801;28;20078;-67
2023/05/01 21:24:51;;;;;;;6.90;4.88;;;;;;;-146.18;100.00;67994.34;10027711;28;20552;-66
2023/05/01 21:29:53;;;;;;;8.32;5.47;;;;;;;-146.18;100.00;67994.34;10015138;29;20517;-68
2023/05/01 21:34:52;;;;;;;9.98;5.35;;;;;;;-146.18;100.00;67994.34;10032010;28;20047;-68
2023/05/01 21:39:49;;;;;;;6.13;4.78;;;;;;;-146.18;100.00;67994.34;10025919;28;20051;-68
2023/05/01 21:44:45;;;;;;;8.55;4.70;;;;;;;-146.18;100.00;67994.34;10034053;28;20044;-67
2023/05/01 21:49:42;;;;;;;9.15;5.28;;;;;;;-146.18;100.00;67994.34;10035303;28;20051;-68
2023/05/01 21:54:38;;;;;;;7.55;4.90;;;;;;;-146.18;100.00;67994.34;10032337;28;20064;-67
2023/05/01 21:59:36;;;;;;;10.82;4.85;;;;;;;-146.18;100.00;67994.34;10028154;28;20523;-66
2023/05/01 22:04:36;;;;;;;7.95;4.80;;;;;;;-146.18;100.00;67994.34;10023530;28;20079;-68
2023/05/01 22:09:32;;;;;;;11.65;5.78;;;;;;;-146.18;100.00;67994.34;10024017;28;20398;-68
2023/05/01 22:14:30;;;;;;;9.00;6.07;;;;;;;-146.18;100.00;67994.34;10027801;28;20605;-69
2023/05/01 22:19:43;;;;;;;9.32;5.53;;;;;;;-146.18;100.00;67994.34;10017566;28;20102;-68
2023/05/01 22:24:39;;;;;;;8.90;5.65;;;;;;;-146.18;100.00;67994.34;10034370;28;20418;-65